sensor_id;sensor_type;location;lat;lon;timestamp;P1;durP1;ratioP1;P2;durP2;ratioP2
7753;SDS011;3921;42.266;23.122;2023-02-28T00:00:13;8.77;;;5.87;;
7753;SDS011;3921;42.266;23.122;2023-02-28T00:02:41;10.17;;;5.43;;
7753;SDS011;3921;42.266;23.122;2023-02-28T00:05:10;8.97;;;5.23;;
7753;SDS011;3921;42.266;23.122;2023-02-28T00:07:38;7.30;;;5.07;;
7753;SDS011;3921;42.266;23.122;2023-02-28T00:10:06;7.73;;;5.23;;
7753;SDS011;3921;42.266;23.122;2023-02-28T00:12:37;9.47;;;5.43;;
7753;SDS011;3921;42.266;23.122;2023-02-28T00:15:05;8.07;;;5.07;;
7753;SDS011;3921;42.266;23.122;2023-02-28T00:17:33;8.40;;;5.10;;
7753;SDS011;3921;42.266;23.122;2023-02-28T00:20:00;7.50;;;4.73;;
7753;SDS011;3921;42.266;23.122;2023-02-28T00:22:37;7.73;;;5.10;;
7753;SDS011;3921;42.266;23.122;2023-02-28T00:25:05;6.43;;;4.87;;
7753;SDS011;3921;42.266;23.122;2023-02-28T00:27:33;6.97;;;5.07;;
7753;SDS011;3921;42.266;23.122;2023-02-28T00:30:01;8.47;;;5.43;;
7753;SDS011;3921;42.266;23.122;2023-02-28T00:32:29;8.20;;;5.73;;
7753;SDS011;3921;42.266;23.122;2023-02-28T00:34:56;8.27;;;5.17;;
7753;SDS011;3921;42.266;23.122;2023-02-28T00:37:23;8.90;;;5.13;;
7753;SDS011;3921;42.266;23.122;2023-02-28T00:39:50;8.70;;;5.17;;
7753;SDS011;3921;42.266;23.122;2023-02-28T00:42:17;5.90;;;4.03;;
7753;SDS011;3921;42.266;23.122;2023-02-28T00:44:44;4.60;;;4.00;;
7753;SDS011;3921;42.266;23.122;2023-02-28T00:47:13;6.93;;;3.70;;
7753;SDS011;3921;42.266;23.122;2023-02-28T00:49:40;4.63;;;3.63;;
7753;SDS011;3921;42.266;23.122;2023-02-28T00:52:07;6.17;;;3.87;;
7753;SDS011;3921;42.266;23.122;2023-02-28T00:54:34;8.50;;;4.03;;
7753;SDS011;3921;42.266;23.122;2023-02-28T00:57:01;5.83;;;3.80;;
7753;SDS011;3921;42.266;23.122;2023-02-28T00:59:28;6.87;;;4.07;;
7753;SDS011;3921;42.266;23.122;2023-02-28T01:01:55;6.10;;;4.40;;
7753;SDS011;3921;42.266;23.122;2023-02-28T01:04:24;8.90;;;5.23;;
7753;SDS011;3921;42.266;23.122;2023-02-28T01:06:51;7.03;;;4.53;;
7753;SDS011;3921;42.266;23.122;2023-02-28T01:09:19;8.33;;;5.10;;
7753;SDS011;3921;42.266;23.122;2023-02-28T01:11:46;5.90;;;4.17;;
7753;SDS011;3921;42.266;23.122;2023-02-28T01:14:14;7.93;;;4.13;;
7753;SDS011;3921;42.266;23.122;2023-02-28T01:16:42;6.57;;;4.77;;
7753;SDS011;3921;42.266;23.122;2023-02-28T01:19:10;6.67;;;4.53;;
7753;SDS011;3921;42.266;23.122;2023-02-28T01:21:38;6.40;;;4.73;;
7753;SDS011;3921;42.266;23.122;2023-02-28T01:24:06;9.30;;;4.53;;
7753;SDS011;3921;42.266;23.122;2023-02-28T01:26:33;10.40;;;5.13;;
7753;SDS011;3921;42.266;23.122;2023-02-28T01:29:00;10.97;;;5.20;;
7753;SDS011;3921;42.266;23.122;2023-02-28T01:31:27;9.17;;;4.87;;
7753;SDS011;3921;42.266;23.122;2023-02-28T01:33:54;7.10;;;4.10;;
7753;SDS011;3921;42.266;23.122;2023-02-28T01:36:22;11.43;;;5.57;;
7753;SDS011;3921;42.266;23.122;2023-02-28T01:38:51;8.10;;;5.63;;
7753;SDS011;3921;42.266;23.122;2023-02-28T01:41:19;10.13;;;5.40;;
7753;SDS011;3921;42.266;23.122;2023-02-28T01:43:55;7.40;;;4.77;;
7753;SDS011;3921;42.266;23.122;2023-02-28T01:46:29;8.60;;;4.40;;
7753;SDS011;3921;42.266;23.122;2023-02-28T01:48:59;7.80;;;4.23;;
7753;SDS011;3921;42.266;23.122;2023-02-28T01:51:33;5.73;;;3.70;;
7753;SDS011;3921;42.266;23.122;2023-02-28T01:54:07;9.17;;;3.27;;
7753;SDS011;3921;42.266;23.122;2023-02-28T01:56:39;5.37;;;3.00;;
7753;SDS011;3921;42.266;23.122;2023-02-28T01:59:11;5.30;;;3.20;;
7753;SDS011;3921;42.266;23.122;2023-02-28T02:01:40;6.13;;;3.40;;
7753;SDS011;3921;42.266;23.122;2023-02-28T02:04:08;6.10;;;3.50;;
7753;SDS011;3921;42.266;23.122;2023-02-28T02:06:36;6.47;;;3.90;;
7753;SDS011;3921;42.266;23.122;2023-02-28T02:09:09;7.27;;;3.70;;
7753;SDS011;3921;42.266;23.122;2023-02-28T02:11:38;5.87;;;4.20;;
7753;SDS011;3921;42.266;23.122;2023-02-28T02:14:13;9.43;;;4.40;;
7753;SDS011;3921;42.266;23.122;2023-02-28T02:17:00;5.20;;;3.13;;
7753;SDS011;3921;42.266;23.122;2023-02-28T02:20:06;6.43;;;3.27;;
7753;SDS011;3921;42.266;23.122;2023-02-28T02:23:06;5.27;;;3.10;;
7753;SDS011;3921;42.266;23.122;2023-02-28T02:25:53;8.00;;;3.67;;
7753;SDS011;3921;42.266;23.122;2023-02-28T02:28:29;5.77;;;3.80;;
7753;SDS011;3921;42.266;23.122;2023-02-28T02:34:28;5.53;;;4.33;;
7753;SDS011;3921;42.266;23.122;2023-02-28T02:37:09;7.13;;;4.57;;
7753;SDS011;3921;42.266;23.122;2023-02-28T02:39:45;8.53;;;4.60;;
7753;SDS011;3921;42.266;23.122;2023-02-28T02:42:20;7.13;;;4.43;;
7753;SDS011;3921;42.266;23.122;2023-02-28T02:44:53;8.37;;;5.33;;
7753;SDS011;3921;42.266;23.122;2023-02-28T02:47:27;7.93;;;5.33;;
7753;SDS011;3921;42.266;23.122;2023-02-28T02:49:59;7.20;;;5.10;;
7753;SDS011;3921;42.266;23.122;2023-02-28T02:52:32;8.93;;;5.43;;
7753;SDS011;3921;42.266;23.122;2023-02-28T02:55:05;7.73;;;4.90;;
7753;SDS011;3921;42.266;23.122;2023-02-28T02:57:36;8.43;;;5.30;;
7753;SDS011;3921;42.266;23.122;2023-02-28T03:00:10;10.83;;;5.40;;
7753;SDS011;3921;42.266;23.122;2023-02-28T03:02:39;8.83;;;5.50;;
7753;SDS011;3921;42.266;23.122;2023-02-28T03:05:12;7.13;;;5.27;;
7753;SDS011;3921;42.266;23.122;2023-02-28T03:07:44;10.27;;;5.50;;
7753;SDS011;3921;42.266;23.122;2023-02-28T03:10:28;11.03;;;7.23;;
7753;SDS011;3921;42.266;23.122;2023-02-28T03:16:18;13.70;;;6.77;;
7753;SDS011;3921;42.266;23.122;2023-02-28T03:19:14;11.83;;;6.93;;
7753;SDS011;3921;42.266;23.122;2023-02-28T03:21:55;9.77;;;6.70;;
7753;SDS011;3921;42.266;23.122;2023-02-28T03:24:31;13.70;;;7.50;;
7753;SDS011;3921;42.266;23.122;2023-02-28T03:27:03;11.30;;;7.33;;
7753;SDS011;3921;42.266;23.122;2023-02-28T03:29:37;15.33;;;8.00;;
7753;SDS011;3921;42.266;23.122;2023-02-28T03:32:10;12.30;;;7.50;;
7753;SDS011;3921;42.266;23.122;2023-02-28T03:34:47;12.37;;;7.73;;
7753;SDS011;3921;42.266;23.122;2023-02-28T03:37:23;13.93;;;8.00;;
7753;SDS011;3921;42.266;23.122;2023-02-28T03:39:53;14.83;;;7.80;;
7753;SDS011;3921;42.266;23.122;2023-02-28T03:42:24;13.97;;;8.17;;
7753;SDS011;3921;42.266;23.122;2023-02-28T03:44:54;12.60;;;8.40;;
7753;SDS011;3921;42.266;23.122;2023-02-28T03:47:25;12.90;;;8.40;;
7753;SDS011;3921;42.266;23.122;2023-02-28T03:49:56;17.87;;;9.00;;
7753;SDS011;3921;42.266;23.122;2023-02-28T03:52:31;15.47;;;8.80;;
7753;SDS011;3921;42.266;23.122;2023-02-28T03:55:00;18.20;;;9.10;;
7753;SDS011;3921;42.266;23.122;2023-02-28T03:57:33;18.00;;;9.07;;
7753;SDS011;3921;42.266;23.122;2023-02-28T04:00:06;16.67;;;9.83;;
7753;SDS011;3921;42.266;23.122;2023-02-28T04:02:37;17.30;;;9.47;;
7753;SDS011;3921;42.266;23.122;2023-02-28T04:05:04;18.80;;;9.03;;
7753;SDS011;3921;42.266;23.122;2023-02-28T04:07:33;16.27;;;9.30;;
7753;SDS011;3921;42.266;23.122;2023-02-28T04:10:01;18.97;;;10.07;;
7753;SDS011;3921;42.266;23.122;2023-02-28T04:12:28;14.27;;;9.93;;
7753;SDS011;3921;42.266;23.122;2023-02-28T04:14:55;17.63;;;9.83;;
7753;SDS011;3921;42.266;23.122;2023-02-28T04:17:22;17.20;;;10.00;;
7753;SDS011;3921;42.266;23.122;2023-02-28T04:19:49;18.73;;;9.50;;
7753;SDS011;3921;42.266;23.122;2023-02-28T04:22:16;20.93;;;10.17;;
7753;SDS011;3921;42.266;23.122;2023-02-28T04:24:45;17.67;;;10.63;;
7753;SDS011;3921;42.266;23.122;2023-02-28T04:27:12;21.90;;;11.57;;
7753;SDS011;3921;42.266;23.122;2023-02-28T04:29:40;18.80;;;10.60;;
7753;SDS011;3921;42.266;23.122;2023-02-28T04:32:09;19.47;;;10.30;;
7753;SDS011;3921;42.266;23.122;2023-02-28T04:34:37;17.83;;;10.07;;
7753;SDS011;3921;42.266;23.122;2023-02-28T04:37:04;16.37;;;9.77;;
7753;SDS011;3921;42.266;23.122;2023-02-28T04:39:34;14.53;;;8.97;;
7753;SDS011;3921;42.266;23.122;2023-02-28T04:42:03;18.37;;;10.07;;
7753;SDS011;3921;42.266;23.122;2023-02-28T04:44:31;19.40;;;10.77;;
7753;SDS011;3921;42.266;23.122;2023-02-28T04:46:58;19.07;;;10.87;;
7753;SDS011;3921;42.266;23.122;2023-02-28T04:49:25;17.53;;;10.80;;
7753;SDS011;3921;42.266;23.122;2023-02-28T04:51:52;21.50;;;10.80;;
7753;SDS011;3921;42.266;23.122;2023-02-28T04:54:20;19.70;;;11.23;;
7753;SDS011;3921;42.266;23.122;2023-02-28T04:56:47;21.13;;;11.60;;
7753;SDS011;3921;42.266;23.122;2023-02-28T04:59:16;20.30;;;11.83;;
7753;SDS011;3921;42.266;23.122;2023-02-28T05:01:45;23.53;;;13.00;;
7753;SDS011;3921;42.266;23.122;2023-02-28T05:04:13;21.13;;;11.33;;
7753;SDS011;3921;42.266;23.122;2023-02-28T05:06:40;20.23;;;10.47;;
7753;SDS011;3921;42.266;23.122;2023-02-28T05:09:07;18.23;;;9.43;;
7753;SDS011;3921;42.266;23.122;2023-02-28T05:11:36;18.77;;;9.73;;
7753;SDS011;3921;42.266;23.122;2023-02-28T05:14:05;17.50;;;9.00;;
7753;SDS011;3921;42.266;23.122;2023-02-28T05:16:35;19.53;;;10.43;;
7753;SDS011;3921;42.266;23.122;2023-02-28T05:19:02;24.23;;;11.40;;
7753;SDS011;3921;42.266;23.122;2023-02-28T05:21:30;22.93;;;10.87;;
7753;SDS011;3921;42.266;23.122;2023-02-28T05:23:59;23.30;;;10.50;;
7753;SDS011;3921;42.266;23.122;2023-02-28T05:26:27;21.40;;;11.57;;
7753;SDS011;3921;42.266;23.122;2023-02-28T05:28:55;22.83;;;10.77;;
7753;SDS011;3921;42.266;23.122;2023-02-28T05:31:22;20.07;;;10.87;;
7753;SDS011;3921;42.266;23.122;2023-02-28T05:33:51;23.03;;;10.87;;
7753;SDS011;3921;42.266;23.122;2023-02-28T05:36:19;19.27;;;11.47;;
7753;SDS011;3921;42.266;23.122;2023-02-28T05:38:46;20.90;;;10.97;;
7753;SDS011;3921;42.266;23.122;2023-02-28T05:41:14;18.83;;;10.00;;
7753;SDS011;3921;42.266;23.122;2023-02-28T05:43:42;18.30;;;9.00;;
7753;SDS011;3921;42.266;23.122;2023-02-28T05:46:18;17.60;;;9.30;;
7753;SDS011;3921;42.266;23.122;2023-02-28T05:48:46;25.80;;;11.77;;
7753;SDS011;3921;42.266;23.122;2023-02-28T05:51:15;20.53;;;11.07;;
7753;SDS011;3921;42.266;23.122;2023-02-28T05:53:43;20.47;;;11.23;;
7753;SDS011;3921;42.266;23.122;2023-02-28T05:56:10;21.80;;;10.93;;
7753;SDS011;3921;42.266;23.122;2023-02-28T05:58:37;27.10;;;12.77;;
7753;SDS011;3921;42.266;23.122;2023-02-28T06:01:19;31.27;;;14.57;;
7753;SDS011;3921;42.266;23.122;2023-02-28T06:03:48;25.13;;;13.50;;
7753;SDS011;3921;42.266;23.122;2023-02-28T06:06:16;21.03;;;11.90;;
7753;SDS011;3921;42.266;23.122;2023-02-28T06:08:43;16.13;;;9.23;;
7753;SDS011;3921;42.266;23.122;2023-02-28T06:11:10;12.70;;;8.63;;
7753;SDS011;3921;42.266;23.122;2023-02-28T06:13:37;16.30;;;9.07;;
7753;SDS011;3921;42.266;23.122;2023-02-28T06:16:05;16.30;;;8.57;;
7753;SDS011;3921;42.266;23.122;2023-02-28T06:18:32;15.90;;;8.83;;
7753;SDS011;3921;42.266;23.122;2023-02-28T06:20:59;15.47;;;8.97;;
7753;SDS011;3921;42.266;23.122;2023-02-28T06:23:28;13.23;;;8.33;;
7753;SDS011;3921;42.266;23.122;2023-02-28T06:25:55;77.37;;;46.53;;
7753;SDS011;3921;42.266;23.122;2023-02-28T06:28:23;18.23;;;9.30;;
7753;SDS011;3921;42.266;23.122;2023-02-28T06:30:51;10.33;;;7.23;;
7753;SDS011;3921;42.266;23.122;2023-02-28T06:33:18;12.87;;;9.60;;
7753;SDS011;3921;42.266;23.122;2023-02-28T06:35:46;12.23;;;7.60;;
7753;SDS011;3921;42.266;23.122;2023-02-28T06:38:13;13.97;;;7.57;;
7753;SDS011;3921;42.266;23.122;2023-02-28T06:40:42;12.10;;;8.03;;
7753;SDS011;3921;42.266;23.122;2023-02-28T06:43:09;13.70;;;8.20;;
7753;SDS011;3921;42.266;23.122;2023-02-28T06:45:41;13.63;;;8.80;;
7753;SDS011;3921;42.266;23.122;2023-02-28T06:48:08;13.30;;;8.30;;
7753;SDS011;3921;42.266;23.122;2023-02-28T06:50:35;11.60;;;6.67;;
7753;SDS011;3921;42.266;23.122;2023-02-28T06:53:03;11.20;;;7.63;;
7753;SDS011;3921;42.266;23.122;2023-02-28T06:55:30;12.73;;;7.63;;
7753;SDS011;3921;42.266;23.122;2023-02-28T06:57:59;11.20;;;6.70;;
7753;SDS011;3921;42.266;23.122;2023-02-28T07:00:26;11.27;;;6.27;;
7753;SDS011;3921;42.266;23.122;2023-02-28T07:02:53;11.03;;;6.07;;
7753;SDS011;3921;42.266;23.122;2023-02-28T07:05:20;9.47;;;6.30;;
7753;SDS011;3921;42.266;23.122;2023-02-28T07:07:47;12.27;;;7.20;;
7753;SDS011;3921;42.266;23.122;2023-02-28T07:10:15;11.20;;;6.90;;
7753;SDS011;3921;42.266;23.122;2023-02-28T07:12:43;11.47;;;7.27;;
7753;SDS011;3921;42.266;23.122;2023-02-28T07:15:11;11.43;;;7.20;;
7753;SDS011;3921;42.266;23.122;2023-02-28T07:17:39;8.87;;;6.43;;
7753;SDS011;3921;42.266;23.122;2023-02-28T07:20:06;10.83;;;7.03;;
7753;SDS011;3921;42.266;23.122;2023-02-28T07:22:34;10.43;;;6.53;;
7753;SDS011;3921;42.266;23.122;2023-02-28T07:25:04;12.63;;;6.67;;
7753;SDS011;3921;42.266;23.122;2023-02-28T07:30:18;10.47;;;6.37;;
7753;SDS011;3921;42.266;23.122;2023-02-28T07:32:45;9.17;;;5.97;;
7753;SDS011;3921;42.266;23.122;2023-02-28T07:35:12;8.27;;;5.50;;
7753;SDS011;3921;42.266;23.122;2023-02-28T07:37:40;9.00;;;6.00;;
7753;SDS011;3921;42.266;23.122;2023-02-28T07:40:08;10.63;;;7.23;;
7753;SDS011;3921;42.266;23.122;2023-02-28T07:42:38;10.57;;;6.60;;
7753;SDS011;3921;42.266;23.122;2023-02-28T07:45:08;13.37;;;8.10;;
7753;SDS011;3921;42.266;23.122;2023-02-28T07:47:38;15.30;;;9.87;;
7753;SDS011;3921;42.266;23.122;2023-02-28T07:50:05;18.07;;;11.03;;
7753;SDS011;3921;42.266;23.122;2023-02-28T07:52:34;14.27;;;10.33;;
7753;SDS011;3921;42.266;23.122;2023-02-28T07:55:02;15.47;;;10.63;;
7753;SDS011;3921;42.266;23.122;2023-02-28T07:57:30;17.67;;;10.30;;
7753;SDS011;3921;42.266;23.122;2023-02-28T07:59:57;14.23;;;9.17;;
7753;SDS011;3921;42.266;23.122;2023-02-28T08:02:24;12.37;;;9.33;;
7753;SDS011;3921;42.266;23.122;2023-02-28T08:04:53;13.83;;;9.50;;
7753;SDS011;3921;42.266;23.122;2023-02-28T08:07:20;13.20;;;9.03;;
7753;SDS011;3921;42.266;23.122;2023-02-28T08:09:47;13.70;;;9.13;;
7753;SDS011;3921;42.266;23.122;2023-02-28T08:12:17;15.13;;;10.13;;
7753;SDS011;3921;42.266;23.122;2023-02-28T08:14:44;15.47;;;9.73;;
7753;SDS011;3921;42.266;23.122;2023-02-28T08:17:13;16.17;;;9.60;;
7753;SDS011;3921;42.266;23.122;2023-02-28T08:19:40;18.40;;;10.47;;
7753;SDS011;3921;42.266;23.122;2023-02-28T08:22:11;16.50;;;10.33;;
7753;SDS011;3921;42.266;23.122;2023-02-28T08:24:38;17.73;;;10.83;;
7753;SDS011;3921;42.266;23.122;2023-02-28T08:30:05;12.90;;;8.47;;
7753;SDS011;3921;42.266;23.122;2023-02-28T08:32:50;13.60;;;9.53;;
7753;SDS011;3921;42.266;23.122;2023-02-28T08:35:17;16.83;;;8.97;;
7753;SDS011;3921;42.266;23.122;2023-02-28T08:37:46;12.33;;;9.30;;
7753;SDS011;3921;42.266;23.122;2023-02-28T08:40:19;11.90;;;8.00;;
7753;SDS011;3921;42.266;23.122;2023-02-28T08:42:46;12.07;;;8.20;;
7753;SDS011;3921;42.266;23.122;2023-02-28T08:45:15;13.27;;;7.77;;
7753;SDS011;3921;42.266;23.122;2023-02-28T08:47:42;11.23;;;8.00;;
7753;SDS011;3921;42.266;23.122;2023-02-28T08:50:10;13.17;;;8.00;;
7753;SDS011;3921;42.266;23.122;2023-02-28T08:52:41;12.60;;;8.07;;
7753;SDS011;3921;42.266;23.122;2023-02-28T08:55:11;12.73;;;8.87;;
7753;SDS011;3921;42.266;23.122;2023-02-28T08:57:40;15.83;;;8.47;;
7753;SDS011;3921;42.266;23.122;2023-02-28T09:00:08;14.50;;;8.23;;
7753;SDS011;3921;42.266;23.122;2023-02-28T09:02:38;18.00;;;9.10;;
7753;SDS011;3921;42.266;23.122;2023-02-28T09:05:11;13.83;;;8.63;;
7753;SDS011;3921;42.266;23.122;2023-02-28T09:07:38;15.23;;;8.87;;
7753;SDS011;3921;42.266;23.122;2023-02-28T09:10:05;17.13;;;8.73;;
7753;SDS011;3921;42.266;23.122;2023-02-28T09:12:34;12.93;;;7.77;;
7753;SDS011;3921;42.266;23.122;2023-02-28T09:15:02;14.37;;;8.43;;
7753;SDS011;3921;42.266;23.122;2023-02-28T09:17:30;13.60;;;8.33;;
7753;SDS011;3921;42.266;23.122;2023-02-28T09:19:58;14.97;;;8.30;;
7753;SDS011;3921;42.266;23.122;2023-02-28T09:22:25;17.70;;;10.23;;
7753;SDS011;3921;42.266;23.122;2023-02-28T09:25:01;18.30;;;11.23;;
7753;SDS011;3921;42.266;23.122;2023-02-28T09:27:28;18.73;;;11.37;;
7753;SDS011;3921;42.266;23.122;2023-02-28T09:30:05;16.60;;;11.13;;
7753;SDS011;3921;42.266;23.122;2023-02-28T09:32:38;22.77;;;10.80;;
7753;SDS011;3921;42.266;23.122;2023-02-28T09:35:08;17.60;;;10.93;;
7753;SDS011;3921;42.266;23.122;2023-02-28T09:37:41;15.47;;;10.17;;
7753;SDS011;3921;42.266;23.122;2023-02-28T09:40:09;17.20;;;10.03;;
7753;SDS011;3921;42.266;23.122;2023-02-28T09:42:38;21.33;;;11.43;;
7753;SDS011;3921;42.266;23.122;2023-02-28T09:45:11;18.83;;;10.50;;
7753;SDS011;3921;42.266;23.122;2023-02-28T09:47:46;19.50;;;11.97;;
7753;SDS011;3921;42.266;23.122;2023-02-28T09:50:17;20.23;;;11.00;;
7753;SDS011;3921;42.266;23.122;2023-02-28T09:52:49;17.83;;;10.50;;
7753;SDS011;3921;42.266;23.122;2023-02-28T09:55:19;18.43;;;10.17;;
7753;SDS011;3921;42.266;23.122;2023-02-28T09:57:53;21.43;;;12.57;;
7753;SDS011;3921;42.266;23.122;2023-02-28T10:00:24;20.60;;;11.93;;
7753;SDS011;3921;42.266;23.122;2023-02-28T10:03:03;23.27;;;13.50;;
7753;SDS011;3921;42.266;23.122;2023-02-28T10:05:38;25.77;;;15.73;;
7753;SDS011;3921;42.266;23.122;2023-02-28T10:08:11;21.03;;;12.83;;
7753;SDS011;3921;42.266;23.122;2023-02-28T10:10:43;20.60;;;11.43;;
7753;SDS011;3921;42.266;23.122;2023-02-28T10:13:19;19.93;;;10.90;;
7753;SDS011;3921;42.266;23.122;2023-02-28T10:15:53;18.80;;;11.17;;
7753;SDS011;3921;42.266;23.122;2023-02-28T10:18:25;18.17;;;11.00;;
7753;SDS011;3921;42.266;23.122;2023-02-28T10:20:57;22.43;;;10.80;;
7753;SDS011;3921;42.266;23.122;2023-02-28T10:23:27;20.33;;;10.10;;
7753;SDS011;3921;42.266;23.122;2023-02-28T10:26:00;20.73;;;10.63;;
7753;SDS011;3921;42.266;23.122;2023-02-28T10:28:32;17.20;;;9.60;;
7753;SDS011;3921;42.266;23.122;2023-02-28T10:31:00;16.40;;;10.43;;
7753;SDS011;3921;42.266;23.122;2023-02-28T10:33:29;16.50;;;9.90;;
7753;SDS011;3921;42.266;23.122;2023-02-28T10:35:58;19.43;;;10.60;;
7753;SDS011;3921;42.266;23.122;2023-02-28T10:38:26;21.27;;;11.60;;
7753;SDS011;3921;42.266;23.122;2023-02-28T10:41:03;20.10;;;10.07;;
7753;SDS011;3921;42.266;23.122;2023-02-28T10:43:31;19.50;;;10.23;;
7753;SDS011;3921;42.266;23.122;2023-02-28T10:46:05;18.20;;;10.07;;
7753;SDS011;3921;42.266;23.122;2023-02-28T10:48:41;18.47;;;9.77;;
7753;SDS011;3921;42.266;23.122;2023-02-28T10:51:10;16.10;;;8.97;;
7753;SDS011;3921;42.266;23.122;2023-02-28T10:53:47;17.77;;;9.87;;
7753;SDS011;3921;42.266;23.122;2023-02-28T10:56:16;20.40;;;10.67;;
7753;SDS011;3921;42.266;23.122;2023-02-28T10:58:47;17.33;;;9.43;;
7753;SDS011;3921;42.266;23.122;2023-02-28T11:01:19;17.10;;;8.50;;
7753;SDS011;3921;42.266;23.122;2023-02-28T11:03:48;19.77;;;8.87;;
7753;SDS011;3921;42.266;23.122;2023-02-28T11:06:17;19.37;;;8.50;;
7753;SDS011;3921;42.266;23.122;2023-02-28T11:08:50;17.77;;;8.40;;
7753;SDS011;3921;42.266;23.122;2023-02-28T11:11:19;17.77;;;9.17;;
7753;SDS011;3921;42.266;23.122;2023-02-28T11:13:49;17.63;;;9.27;;
7753;SDS011;3921;42.266;23.122;2023-02-28T11:16:20;22.17;;;9.23;;
7753;SDS011;3921;42.266;23.122;2023-02-28T11:18:49;20.03;;;9.03;;
7753;SDS011;3921;42.266;23.122;2023-02-28T11:21:20;20.27;;;9.00;;
7753;SDS011;3921;42.266;23.122;2023-02-28T11:23:51;20.00;;;9.73;;
7753;SDS011;3921;42.266;23.122;2023-02-28T11:26:37;20.00;;;9.20;;
7753;SDS011;3921;42.266;23.122;2023-02-28T11:29:10;21.13;;;9.47;;
7753;SDS011;3921;42.266;23.122;2023-02-28T11:31:42;18.77;;;9.43;;
7753;SDS011;3921;42.266;23.122;2023-02-28T11:34:26;17.67;;;8.87;;
7753;SDS011;3921;42.266;23.122;2023-02-28T11:36:54;18.80;;;10.03;;
7753;SDS011;3921;42.266;23.122;2023-02-28T11:39:24;17.00;;;9.97;;
7753;SDS011;3921;42.266;23.122;2023-02-28T11:41:55;18.23;;;9.83;;
7753;SDS011;3921;42.266;23.122;2023-02-28T11:44:51;16.33;;;9.77;;
7753;SDS011;3921;42.266;23.122;2023-02-28T11:47:34;18.73;;;9.73;;
7753;SDS011;3921;42.266;23.122;2023-02-28T11:50:13;19.40;;;10.07;;
7753;SDS011;3921;42.266;23.122;2023-02-28T11:52:48;17.90;;;9.60;;
7753;SDS011;3921;42.266;23.122;2023-02-28T11:55:19;19.43;;;10.13;;
7753;SDS011;3921;42.266;23.122;2023-02-28T11:58:00;15.47;;;9.13;;
7753;SDS011;3921;42.266;23.122;2023-02-28T12:00:40;16.33;;;9.33;;
7753;SDS011;3921;42.266;23.122;2023-02-28T12:03:26;17.03;;;9.07;;
7753;SDS011;3921;42.266;23.122;2023-02-28T12:06:09;15.20;;;9.10;;
7753;SDS011;3921;42.266;23.122;2023-02-28T12:08:50;14.83;;;9.40;;
7753;SDS011;3921;42.266;23.122;2023-02-28T12:11:34;16.90;;;9.47;;
7753;SDS011;3921;42.266;23.122;2023-02-28T12:17:14;19.53;;;9.67;;
7753;SDS011;3921;42.266;23.122;2023-02-28T12:19:51;16.07;;;9.50;;
7753;SDS011;3921;42.266;23.122;2023-02-28T12:22:29;17.57;;;9.10;;
7753;SDS011;3921;42.266;23.122;2023-02-28T12:25:10;19.13;;;9.60;;
7753;SDS011;3921;42.266;23.122;2023-02-28T12:28:17;18.67;;;9.63;;
7753;SDS011;3921;42.266;23.122;2023-02-28T12:30:53;18.53;;;9.97;;
7753;SDS011;3921;42.266;23.122;2023-02-28T12:33:26;18.07;;;9.87;;
7753;SDS011;3921;42.266;23.122;2023-02-28T12:36:01;18.60;;;9.40;;
7753;SDS011;3921;42.266;23.122;2023-02-28T12:38:34;24.03;;;10.20;;
7753;SDS011;3921;42.266;23.122;2023-02-28T12:41:09;18.07;;;10.33;;
7753;SDS011;3921;42.266;23.122;2023-02-28T12:43:41;19.10;;;10.57;;
7753;SDS011;3921;42.266;23.122;2023-02-28T12:46:12;17.40;;;9.80;;
7753;SDS011;3921;42.266;23.122;2023-02-28T12:48:43;18.93;;;10.33;;
7753;SDS011;3921;42.266;23.122;2023-02-28T12:51:15;17.20;;;10.83;;
7753;SDS011;3921;42.266;23.122;2023-02-28T12:53:48;19.80;;;10.90;;
7753;SDS011;3921;42.266;23.122;2023-02-28T12:56:27;19.43;;;10.43;;
7753;SDS011;3921;42.266;23.122;2023-02-28T12:59:02;20.57;;;10.53;;
7753;SDS011;3921;42.266;23.122;2023-02-28T13:04:53;19.87;;;10.53;;
7753;SDS011;3921;42.266;23.122;2023-02-28T13:07:35;18.57;;;10.63;;
7753;SDS011;3921;42.266;23.122;2023-02-28T13:10:16;20.57;;;10.33;;
7753;SDS011;3921;42.266;23.122;2023-02-28T13:12:47;16.37;;;9.43;;
7753;SDS011;3921;42.266;23.122;2023-02-28T13:15:17;21.53;;;10.83;;
7753;SDS011;3921;42.266;23.122;2023-02-28T13:17:49;19.57;;;10.63;;
7753;SDS011;3921;42.266;23.122;2023-02-28T13:20:18;19.27;;;10.93;;
7753;SDS011;3921;42.266;23.122;2023-02-28T13:22:49;25.53;;;11.50;;
7753;SDS011;3921;42.266;23.122;2023-02-28T13:31:24;17.37;;;9.93;;
7753;SDS011;3921;42.266;23.122;2023-02-28T13:36:46;16.97;;;10.07;;
7753;SDS011;3921;42.266;23.122;2023-02-28T13:42:22;17.20;;;10.67;;
7753;SDS011;3921;42.266;23.122;2023-02-28T13:47:52;18.83;;;10.87;;
7753;SDS011;3921;42.266;23.122;2023-02-28T13:50:23;20.43;;;11.07;;
7753;SDS011;3921;42.266;23.122;2023-02-28T13:53:02;20.70;;;11.10;;
7753;SDS011;3921;42.266;23.122;2023-02-28T13:55:51;19.00;;;11.27;;
7753;SDS011;3921;42.266;23.122;2023-02-28T13:58:32;17.37;;;11.37;;
7753;SDS011;3921;42.266;23.122;2023-02-28T14:01:22;20.93;;;10.07;;
7753;SDS011;3921;42.266;23.122;2023-02-28T14:04:09;19.83;;;10.57;;
7753;SDS011;3921;42.266;23.122;2023-02-28T14:07:00;15.93;;;10.80;;
7753;SDS011;3921;42.266;23.122;2023-02-28T14:14:55;17.87;;;10.07;;
7753;SDS011;3921;42.266;23.122;2023-02-28T14:17:23;16.00;;;9.50;;
7753;SDS011;3921;42.266;23.122;2023-02-28T14:19:52;20.90;;;11.97;;
7753;SDS011;3921;42.266;23.122;2023-02-28T14:22:26;17.93;;;10.47;;
7753;SDS011;3921;42.266;23.122;2023-02-28T14:25:11;20.97;;;12.63;;
7753;SDS011;3921;42.266;23.122;2023-02-28T14:27:48;19.80;;;11.23;;
7753;SDS011;3921;42.266;23.122;2023-02-28T14:33:41;16.33;;;10.43;;
7753;SDS011;3921;42.266;23.122;2023-02-28T14:36:18;14.73;;;10.67;;
7753;SDS011;3921;42.266;23.122;2023-02-28T14:38:50;18.83;;;10.97;;
7753;SDS011;3921;42.266;23.122;2023-02-28T14:41:21;16.03;;;10.73;;
7753;SDS011;3921;42.266;23.122;2023-02-28T14:43:52;18.10;;;10.23;;
7753;SDS011;3921;42.266;23.122;2023-02-28T14:46:28;18.27;;;10.27;;
7753;SDS011;3921;42.266;23.122;2023-02-28T14:49:05;18.57;;;10.57;;
7753;SDS011;3921;42.266;23.122;2023-02-28T14:51:33;19.90;;;11.50;;
7753;SDS011;3921;42.266;23.122;2023-02-28T14:54:01;17.43;;;9.67;;
7753;SDS011;3921;42.266;23.122;2023-02-28T14:56:32;21.83;;;11.77;;
7753;SDS011;3921;42.266;23.122;2023-02-28T14:59:04;19.23;;;10.93;;
7753;SDS011;3921;42.266;23.122;2023-02-28T15:01:34;15.53;;;10.03;;
7753;SDS011;3921;42.266;23.122;2023-02-28T15:04:01;16.60;;;10.73;;
7753;SDS011;3921;42.266;23.122;2023-02-28T15:06:33;15.63;;;9.83;;
7753;SDS011;3921;42.266;23.122;2023-02-28T15:09:07;16.30;;;9.33;;
7753;SDS011;3921;42.266;23.122;2023-02-28T15:11:40;19.57;;;9.87;;
7753;SDS011;3921;42.266;23.122;2023-02-28T15:14:13;17.63;;;10.00;;
7753;SDS011;3921;42.266;23.122;2023-02-28T15:16:48;13.70;;;8.60;;
7753;SDS011;3921;42.266;23.122;2023-02-28T15:19:21;14.87;;;9.20;;
7753;SDS011;3921;42.266;23.122;2023-02-28T15:21:52;14.70;;;8.50;;
7753;SDS011;3921;42.266;23.122;2023-02-28T15:24:27;14.60;;;8.73;;
7753;SDS011;3921;42.266;23.122;2023-02-28T15:27:03;14.43;;;8.97;;
7753;SDS011;3921;42.266;23.122;2023-02-28T15:29:34;18.60;;;9.23;;
7753;SDS011;3921;42.266;23.122;2023-02-28T15:32:26;15.03;;;8.23;;
7753;SDS011;3921;42.266;23.122;2023-02-28T15:34:54;15.17;;;9.03;;
7753;SDS011;3921;42.266;23.122;2023-02-28T15:37:29;14.73;;;8.40;;
7753;SDS011;3921;42.266;23.122;2023-02-28T15:40:05;14.00;;;7.90;;
7753;SDS011;3921;42.266;23.122;2023-02-28T15:42:39;13.07;;;8.10;;
7753;SDS011;3921;42.266;23.122;2023-02-28T15:47:55;12.63;;;8.20;;
7753;SDS011;3921;42.266;23.122;2023-02-28T15:50:24;15.03;;;8.63;;
7753;SDS011;3921;42.266;23.122;2023-02-28T15:52:53;15.37;;;9.07;;
7753;SDS011;3921;42.266;23.122;2023-02-28T15:55:32;15.37;;;9.60;;